createdAt,value
2022-11-16T00:02:20.216Z,99550.00
2022-11-16T00:04:47.360Z,99562.00
2022-11-16T00:07:14.691Z,99550.00
2022-11-16T00:09:41.874Z,99549.00
2022-11-16T00:12:11.088Z,99542.00
2022-11-16T00:14:38.259Z,99540.00
2022-11-16T00:17:06.468Z,99539.00
2022-11-16T00:19:33.663Z,99540.00
2022-11-16T00:22:00.924Z,99539.00
2022-11-16T00:24:28.070Z,99539.00
2022-11-16T00:26:56.317Z,99533.00
2022-11-16T00:29:26.323Z,99534.00
2022-11-16T00:31:54.936Z,99527.00
2022-11-16T00:34:23.679Z,99533.00
2022-11-16T00:36:51.493Z,99537.00
2022-11-16T00:39:19.746Z,99531.00
2022-11-16T00:41:48.324Z,99528.00
2022-11-16T00:44:16.587Z,99538.00
2022-11-16T00:46:43.718Z,99529.00
2022-11-16T00:49:11.160Z,99531.00
2022-11-16T00:51:38.768Z,99532.00
2022-11-16T00:54:08.565Z,99527.00
2022-11-16T00:56:37.009Z,99531.00
2022-11-16T00:59:04.612Z,99524.00
2022-11-16T01:01:31.932Z,99533.00
2022-11-16T01:03:59.167Z,99536.00
2022-11-16T01:06:26.287Z,99538.00
2022-11-16T01:08:53.356Z,99542.00
2022-11-16T01:11:39.115Z,99539.00
2022-11-16T01:14:09.990Z,99527.00
2022-11-16T01:16:37.170Z,99535.00
2022-11-16T01:19:05.243Z,99545.00
2022-11-16T01:21:33.207Z,99543.00
2022-11-16T01:24:00.258Z,99541.00
2022-11-16T01:26:27.528Z,99542.00
2022-11-16T01:29:13.728Z,99535.00
2022-11-16T01:32:19.397Z,99544.00
2022-11-16T01:34:46.783Z,99536.00
2022-11-16T01:37:14.065Z,99524.00
2022-11-16T01:39:41.200Z,99509.00
2022-11-16T01:42:10.980Z,99511.00
2022-11-16T01:45:08.663Z,99524.00
2022-11-16T01:47:35.927Z,99515.00
2022-11-16T01:50:13.285Z,99523.00
2022-11-16T01:52:53.343Z,99518.00
2022-11-16T01:55:22.820Z,99514.00
2022-11-16T01:57:51.204Z,99515.00
2022-11-16T02:00:19.435Z,99508.00
2022-11-16T02:02:46.537Z,99510.00
2022-11-16T02:05:20.489Z,99504.00
2022-11-16T02:08:18.027Z,99504.00
2022-11-16T02:11:31.214Z,99505.00
2022-11-16T02:14:18.114Z,99497.00
2022-11-16T02:16:56.235Z,99501.00
2022-11-16T02:20:00.805Z,99497.00
2022-11-16T02:22:42.309Z,99490.00
2022-11-16T02:25:23.959Z,99489.00
2022-11-16T02:29:00.564Z,99489.00
2022-11-16T02:31:37.882Z,99486.00
2022-11-16T02:34:11.210Z,99482.00
2022-11-16T02:36:42.189Z,99484.00
2022-11-16T02:39:17.836Z,99479.00
2022-11-16T02:41:49.906Z,99481.00
2022-11-16T02:44:26.226Z,99485.00
2022-11-16T02:46:59.591Z,99476.00
2022-11-16T02:49:31.075Z,99480.00
2022-11-16T02:51:59.290Z,99484.00
2022-11-16T02:54:26.616Z,99473.00
2022-11-16T02:57:02.515Z,99478.00
2022-11-16T02:59:55.924Z,99471.00
2022-11-16T03:02:48.586Z,99473.00
2022-11-16T03:05:32.309Z,99477.00
2022-11-16T03:08:26.773Z,99472.00
2022-11-16T03:11:19.143Z,99480.00
2022-11-16T03:13:48.750Z,99482.00
2022-11-16T03:16:32.338Z,99484.00
2022-11-16T03:19:05.577Z,99474.00
2022-11-16T03:22:06.637Z,99481.00
2022-11-16T03:24:34.001Z,99481.00
2022-11-16T03:27:37.146Z,99481.00
2022-11-16T03:30:21.084Z,99476.00
2022-11-16T03:33:10.599Z,99477.00
2022-11-16T03:35:56.857Z,99488.00
2022-11-16T03:38:27.511Z,99483.00
2022-11-16T03:41:03.900Z,99494.00
2022-11-16T03:43:33.218Z,99492.00
2022-11-16T03:46:00.877Z,99508.00
2022-11-16T03:48:40.149Z,99500.00
2022-11-16T03:51:16.225Z,99510.00
2022-11-16T03:53:43.905Z,99509.00
2022-11-16T03:56:11.022Z,99504.00
2022-11-16T03:58:38.370Z,99504.00
2022-11-16T04:01:20.113Z,99517.00
2022-11-16T04:03:47.742Z,99503.00
2022-11-16T04:06:33.639Z,99501.00
2022-11-16T04:09:27.071Z,99496.00
2022-11-16T04:12:13.214Z,99508.00
2022-11-16T04:14:59.010Z,99506.00
2022-11-16T04:17:45.695Z,99511.00
2022-11-16T04:20:33.493Z,99513.00
2022-11-16T04:23:34.559Z,99511.00
2022-11-16T04:26:01.798Z,99518.00
2022-11-16T04:28:35.967Z,99524.00
2022-11-16T04:31:23.492Z,99524.00
2022-11-16T04:34:11.474Z,99524.00
2022-11-16T04:36:57.469Z,99524.00
2022-11-16T04:39:24.524Z,99531.00
2022-11-16T04:42:13.353Z,99529.00
2022-11-16T04:44:59.059Z,99541.00
2022-11-16T04:47:26.173Z,99535.00
2022-11-16T04:49:53.307Z,99539.00
2022-11-16T04:52:20.398Z,99549.00
2022-11-16T04:54:47.594Z,99554.00
2022-11-16T04:57:14.596Z,99561.00
2022-11-16T04:59:41.703Z,99561.00
2022-11-16T05:02:08.797Z,99556.00
2022-11-16T05:04:42.418Z,99566.00
2022-11-16T05:07:12.895Z,99562.00
2022-11-16T05:09:46.576Z,99571.00
2022-11-16T05:12:22.217Z,99565.00
2022-11-16T05:14:49.455Z,99563.00
2022-11-16T05:17:18.072Z,99563.00
2022-11-16T05:20:04.077Z,99572.00
2022-11-16T05:22:31.379Z,99578.00
2022-11-16T05:24:59.075Z,99585.00
2022-11-16T05:27:29.052Z,99580.00
2022-11-16T05:29:56.897Z,99582.00
2022-11-16T05:32:26.613Z,99585.00
2022-11-16T05:34:54.396Z,99584.00
2022-11-16T05:37:21.574Z,99586.00
2022-11-16T05:39:48.903Z,99586.00
2022-11-16T05:42:16.715Z,99583.00
2022-11-16T05:44:43.896Z,99587.00
2022-11-16T05:47:11.020Z,99588.00
2022-11-16T05:49:38.116Z,99583.00
2022-11-16T05:52:05.240Z,99585.00
2022-11-16T05:54:32.421Z,99589.00
2022-11-16T05:56:59.591Z,99604.00
2022-11-16T05:59:27.848Z,99588.00
2022-11-16T06:01:54.979Z,99593.00
2022-11-16T06:04:24.684Z,99598.00
2022-11-16T06:06:52.526Z,99602.00
2022-11-16T06:09:19.973Z,99614.00
2022-11-16T06:11:47.116Z,99605.00
2022-11-16T06:14:14.248Z,99608.00
2022-11-16T06:16:41.364Z,99597.00
2022-11-16T06:19:08.508Z,99608.00
2022-11-16T06:21:35.645Z,99612.00
2022-11-16T06:24:08.948Z,99609.00
2022-11-16T06:26:37.295Z,99607.00
2022-11-16T06:29:05.087Z,99604.00
2022-11-16T06:31:32.456Z,99619.00
2022-11-16T06:33:59.664Z,99623.00
2022-11-16T06:36:27.296Z,99629.00
2022-11-16T06:38:54.553Z,99636.00
2022-11-16T06:41:22.113Z,99641.00
2022-11-16T06:43:49.309Z,99646.00
2022-11-16T06:46:16.487Z,99635.00
2022-11-16T06:48:43.542Z,99655.00
2022-11-16T06:51:12.822Z,99647.00
2022-11-16T06:53:40.744Z,99653.00
2022-11-16T06:56:50.281Z,99660.00
2022-11-16T06:59:17.349Z,99661.00
2022-11-16T07:01:44.519Z,99665.00
2022-11-16T07:04:12.160Z,99670.00
2022-11-16T07:06:48.859Z,99664.00
2022-11-16T07:09:16.089Z,99670.00
2022-11-16T07:11:43.469Z,99678.00
2022-11-16T07:14:12.426Z,99681.00
2022-11-16T07:16:39.649Z,99674.00
2022-11-16T07:19:06.863Z,99687.00
2022-11-16T07:21:34.422Z,99695.00
2022-11-16T07:24:01.665Z,99688.00
2022-11-16T07:26:31.335Z,99690.00
2022-11-16T07:29:38.034Z,99695.00
2022-11-16T07:32:25.765Z,99709.00
2022-11-16T07:34:56.386Z,99702.00
2022-11-16T07:37:26.090Z,99717.00
2022-11-16T07:39:53.463Z,99720.00
2022-11-16T07:42:20.700Z,99717.00
2022-11-16T07:44:48.186Z,99712.00
2022-11-16T07:47:15.292Z,99717.00
2022-11-16T07:49:42.501Z,99720.00
2022-11-16T07:52:12.569Z,99720.00
2022-11-16T07:54:40.071Z,99718.00
2022-11-16T07:57:07.291Z,99715.00
2022-11-16T07:59:34.511Z,99715.00
2022-11-16T08:02:01.767Z,99714.00
2022-11-16T08:04:28.938Z,99716.00
2022-11-16T08:06:56.125Z,99727.00
2022-11-16T08:09:23.428Z,99723.00
2022-11-16T08:11:51.539Z,99728.00
2022-11-16T08:14:19.353Z,99721.00
2022-11-16T08:16:46.701Z,99734.00
2022-11-16T08:19:14.031Z,99738.00
2022-11-16T08:21:41.204Z,99751.00
2022-11-16T08:24:09.125Z,99746.00
2022-11-16T08:26:36.228Z,99744.00
2022-11-16T08:29:03.392Z,99746.00
2022-11-16T08:31:30.724Z,99750.00
2022-11-16T08:34:00.760Z,99734.00
2022-11-16T08:36:28.388Z,99750.00
2022-11-16T08:38:55.664Z,99747.00
2022-11-16T08:41:26.165Z,99754.00
2022-11-16T08:43:54.273Z,99751.00
2022-11-16T08:46:22.012Z,99764.00
2022-11-16T08:48:49.204Z,99749.00
2022-11-16T08:51:20.777Z,99757.00
2022-11-16T08:53:49.841Z,99754.00
2022-11-16T08:56:18.781Z,99761.00
2022-11-16T08:58:53.773Z,99762.00
2022-11-16T09:01:26.804Z,99761.00
2022-11-16T09:03:54.575Z,99766.00
2022-11-16T09:06:24.490Z,99773.00
2022-11-16T09:08:54.945Z,99780.00
2022-11-16T09:11:24.934Z,99788.00
2022-11-16T09:13:55.279Z,99788.00
2022-11-16T09:16:23.727Z,99788.00
2022-11-16T09:18:55.354Z,99780.00
2022-11-16T09:21:28.546Z,99782.00
2022-11-16T09:23:57.898Z,99788.00
2022-11-16T09:26:26.783Z,99782.00
2022-11-16T09:29:00.455Z,99785.00
2022-11-16T09:31:35.004Z,99788.00
2022-11-16T09:34:03.196Z,99776.00
2022-11-16T09:36:50.094Z,99774.00
2022-11-16T09:39:33.013Z,99789.00
2022-11-16T09:42:27.171Z,99784.00
2022-11-16T09:45:15.561Z,99784.00
2022-11-16T09:47:56.637Z,99777.00
2022-11-16T09:51:03.113Z,99781.00
2022-11-16T09:53:57.035Z,99787.00
2022-11-16T09:56:28.749Z,99787.00
2022-11-16T09:59:27.162Z,99778.00
2022-11-16T10:02:34.861Z,99797.00
2022-11-16T10:05:21.774Z,99786.00
2022-11-16T10:08:04.937Z,99781.00
2022-11-16T10:10:40.264Z,99782.00
2022-11-16T10:13:37.192Z,99769.00
2022-11-16T10:16:15.651Z,99777.00
2022-11-16T10:19:10.189Z,99778.00
2022-11-16T10:22:07.512Z,99781.00
2022-11-16T10:24:44.761Z,99776.00
2022-11-16T10:27:50.163Z,99772.00
2022-11-16T10:30:22.386Z,99768.00
2022-11-16T10:33:02.148Z,99771.00
2022-11-16T10:35:39.838Z,99764.00
2022-11-16T10:38:22.686Z,99756.00
2022-11-16T10:41:04.458Z,99759.00
2022-11-16T10:43:33.551Z,99756.00
2022-11-16T10:46:26.985Z,99757.00
2022-11-16T10:49:22.405Z,99754.00
2022-11-16T10:51:49.666Z,99758.00
2022-11-16T10:54:18.548Z,99741.00
2022-11-16T10:56:52.635Z,99755.00
2022-11-16T10:59:20.493Z,99757.00
2022-11-16T11:01:55.012Z,99751.00
2022-11-16T11:04:31.823Z,99749.00
2022-11-16T11:07:22.199Z,99742.00
2022-11-16T11:09:56.051Z,99756.00
2022-11-16T11:12:44.288Z,99745.00
2022-11-16T11:15:11.283Z,99729.00
2022-11-16T11:17:47.521Z,99731.00
2022-11-16T11:20:17.679Z,99742.00
2022-11-16T11:22:58.329Z,99741.00
2022-11-16T11:25:30.056Z,99732.00
2022-11-16T11:28:20.952Z,99737.00
2022-11-16T11:31:04.052Z,99732.00
2022-11-16T11:33:52.324Z,99720.00
2022-11-16T11:36:24.862Z,99720.00
2022-11-16T11:39:36.523Z,99719.00
2022-11-16T11:42:22.868Z,99710.00
2022-11-16T11:45:07.425Z,99721.00
2022-11-16T11:48:12.294Z,99721.00
2022-11-16T11:50:55.582Z,99711.00
2022-11-16T11:53:51.993Z,99718.00
2022-11-16T11:56:19.885Z,99710.00
2022-11-16T11:58:49.057Z,99718.00
2022-11-16T12:02:26.879Z,99720.00
2022-11-16T12:05:35.472Z,99707.00
2022-11-16T12:08:40.682Z,99709.00
2022-11-16T12:11:55.634Z,99702.00
2022-11-16T12:14:54.422Z,99704.00
2022-11-16T12:17:56.114Z,99699.00
2022-11-16T12:20:30.627Z,99693.00
2022-11-16T12:23:24.730Z,99683.00
2022-11-16T12:26:29.458Z,99680.00
2022-11-16T12:29:45.946Z,99674.00
2022-11-16T12:32:54.050Z,99676.00
2022-11-16T12:35:28.809Z,99671.00
2022-11-16T12:38:30.041Z,99670.00
2022-11-16T12:41:26.398Z,99676.00
2022-11-16T12:44:05.079Z,99667.00
2022-11-16T12:47:13.359Z,99658.00
2022-11-16T12:50:03.301Z,99669.00
2022-11-16T12:52:39.142Z,99657.00
2022-11-16T12:55:30.524Z,99655.00
2022-11-16T12:58:27.794Z,99647.00
2022-11-16T13:01:40.894Z,99645.00
2022-11-16T13:04:13.141Z,99642.00
2022-11-16T13:06:57.049Z,99639.00
2022-11-16T13:09:32.570Z,99633.00
2022-11-16T13:12:06.370Z,99625.00
2022-11-16T13:14:53.509Z,99634.00
2022-11-16T13:17:34.805Z,99631.00
2022-11-16T13:20:29.029Z,99621.00
2022-11-16T13:23:04.964Z,99618.00
2022-11-16T13:26:10.600Z,99605.00
2022-11-16T13:28:54.869Z,99628.00
2022-11-16T13:31:52.944Z,99630.00
2022-11-16T13:34:33.115Z,99634.00
2022-11-16T13:37:37.598Z,99613.00
2022-11-16T13:40:04.787Z,99610.00
2022-11-16T13:42:42.900Z,99609.00
2022-11-16T13:45:22.250Z,99594.00
2022-11-16T13:47:59.064Z,99602.00
2022-11-16T13:50:39.438Z,99598.00
2022-11-16T13:56:05.038Z,99598.00
2022-11-16T13:58:36.135Z,99597.00
2022-11-16T14:01:14.427Z,99598.00
2022-11-16T14:03:45.639Z,99591.00
2022-11-16T14:06:24.868Z,99599.00
2022-11-16T14:09:00.171Z,99598.00
2022-11-16T14:11:40.763Z,99607.00
2022-11-16T14:15:13.942Z,99604.00
2022-11-16T14:18:07.303Z,99586.00
2022-11-16T14:21:03.507Z,99603.00
2022-11-16T14:24:04.323Z,99606.00
2022-11-16T14:27:10.127Z,99606.00
2022-11-16T14:30:19.730Z,99612.00
2022-11-16T14:32:52.325Z,99613.00
2022-11-16T14:35:30.502Z,99598.00
2022-11-16T14:39:04.795Z,99592.00
2022-11-16T14:41:32.162Z,99589.00
2022-11-16T14:43:59.984Z,99587.00
2022-11-16T14:46:33.166Z,99578.00
2022-11-16T14:49:03.172Z,99581.00
2022-11-16T14:51:47.509Z,99583.00
2022-11-16T14:54:42.577Z,99574.00
2022-11-16T14:57:27.691Z,99586.00
2022-11-16T15:00:25.899Z,99583.00
2022-11-16T15:03:00.873Z,99586.00
2022-11-16T15:05:35.631Z,99588.00
2022-11-16T15:08:22.338Z,99587.00
2022-11-16T15:10:52.526Z,99580.00
2022-11-16T15:13:23.867Z,99581.00
2022-11-16T15:16:16.278Z,99576.00
2022-11-16T15:18:58.450Z,99582.00
2022-11-16T15:21:26.998Z,99579.00
2022-11-16T15:24:23.561Z,99576.00
2022-11-16T15:26:41.199Z,99563.00
2022-11-16T15:29:20.720Z,99552.00
2022-11-16T15:31:48.913Z,99547.00
2022-11-16T15:34:20.825Z,99555.00
2022-11-16T15:36:48.964Z,99560.00
2022-11-16T15:39:22.592Z,99553.00
2022-11-16T15:41:51.402Z,99533.00
2022-11-16T15:44:22.689Z,99528.00
2022-11-16T15:46:56.071Z,99525.00
2022-11-16T15:49:35.492Z,99538.00
2022-11-16T15:52:06.470Z,99523.00
2022-11-16T15:54:56.256Z,99520.00
2022-11-16T15:57:25.152Z,99528.00
2022-11-16T15:59:55.819Z,99529.00
2022-11-16T16:02:29.899Z,99537.00
2022-11-16T16:04:57.410Z,99529.00
2022-11-16T16:07:47.082Z,99534.00
2022-11-16T16:10:25.410Z,99515.00
2022-11-16T16:13:02.790Z,99510.00
2022-11-16T16:15:36.199Z,99504.00
2022-11-16T16:18:14.085Z,99496.00
2022-11-16T16:20:48.727Z,99494.00
2022-11-16T16:23:25.045Z,99490.00
2022-11-16T16:25:52.106Z,99488.00
2022-11-16T16:28:19.085Z,99481.00
2022-11-16T16:30:47.022Z,99485.00
2022-11-16T16:33:22.134Z,99487.00
2022-11-16T16:39:07.421Z,99478.00
2022-11-16T16:41:34.600Z,99475.00
2022-11-16T16:44:01.677Z,99468.00
2022-11-16T16:46:28.868Z,99465.00
2022-11-16T16:48:55.917Z,99467.00
2022-11-16T16:51:23.121Z,99460.00
2022-11-16T16:53:50.283Z,99473.00
2022-11-16T16:56:19.610Z,99477.00
2022-11-16T16:58:46.741Z,99478.00
2022-11-16T17:01:14.291Z,99479.00
2022-11-16T17:03:41.751Z,99475.00
2022-11-16T17:06:11.991Z,99468.00
2022-11-16T17:08:39.511Z,99464.00
2022-11-16T17:11:07.804Z,99461.00
2022-11-16T17:13:35.324Z,99449.00
2022-11-16T20:17:46.773Z,99225.00
2022-11-16T20:20:14.279Z,99234.00
2022-11-16T20:22:41.513Z,99228.00
2022-11-16T20:25:09.086Z,99223.00
2022-11-16T20:27:36.504Z,99222.00
2022-11-16T20:30:09.263Z,99217.00
2022-11-16T20:32:36.878Z,99211.00
2022-11-16T20:35:04.189Z,99209.00
2022-11-16T20:37:31.404Z,99210.00
2022-11-16T20:39:58.495Z,99186.00
2022-11-16T20:42:25.683Z,99196.00
2022-11-16T20:44:52.798Z,99193.00
2022-11-16T20:47:19.868Z,99196.00
2022-11-16T20:49:46.883Z,99195.00
2022-11-16T20:52:13.896Z,99181.00
2022-11-16T20:54:40.918Z,99172.00
2022-11-16T20:57:08.177Z,99182.00
2022-11-16T20:59:35.319Z,99167.00
2022-11-16T21:02:02.395Z,99182.00
2022-11-16T21:13:08.648Z,99155.00
2022-11-16T21:19:35.472Z,99144.00
2022-11-16T21:26:11.348Z,99132.00
2022-11-16T21:32:49.534Z,99118.00
2022-11-16T21:39:27.669Z,99106.00
2022-11-16T21:46:06.373Z,99100.00
2022-11-16T21:52:43.151Z,99094.00
2022-11-16T21:59:20.645Z,99073.00
2022-11-16T22:07:34.178Z,99068.00
2022-11-16T22:11:50.963Z,99061.00
2022-11-16T22:20:57.886Z,99035.00
2022-11-16T22:52:31.817Z,98940.00
2022-11-16T22:54:58.997Z,98936.00
2022-11-16T22:57:26.158Z,98932.00
2022-11-16T22:59:53.787Z,98917.00
2022-11-16T23:02:20.972Z,98903.00
2022-11-16T23:04:48.236Z,98914.00
2022-11-16T23:07:15.478Z,98904.00
2022-11-16T23:09:42.751Z,98891.00
2022-11-16T23:12:28.762Z,98884.00
2022-11-16T23:15:14.614Z,98868.00
2022-11-16T23:17:41.780Z,98847.00
2022-11-16T23:20:28.985Z,98847.00
2022-11-16T23:23:14.902Z,98840.00
2022-11-16T23:26:00.744Z,98813.00
2022-11-16T23:28:31.094Z,98802.00
2022-11-16T23:31:01.309Z,98778.00
2022-11-16T23:33:49.622Z,98765.00
2022-11-16T23:36:17.530Z,98767.00
2022-11-16T23:38:44.988Z,98753.00
2022-11-16T23:41:30.873Z,98751.00
2022-11-16T23:43:59.219Z,98740.00
2022-11-16T23:46:28.943Z,98733.00
2022-11-16T23:48:56.859Z,98721.00
2022-11-16T23:51:25.814Z,98722.00
2022-11-16T23:53:57.067Z,98721.00
2022-11-16T23:56:25.380Z,98717.00
2022-11-16T23:58:57.674Z,98704.00
